Time;durP1;ratioP1;P1;durP2;ratioP2;P2;SDS_P1;SDS_P2;PMS_P1;PMS_P2;Temp;Humidity;BMP_temperature;BMP_pressure;BME280_temperature;BME280_humidity;BME280_pressure;Samples;Min_cycle;Max_cycle;Signal;HPM_P1;HPM_P2
2022/12/14 00:00:48;;;;;;;19.65;11.23;;;;;;;0.01;64.69;100566.78;5069707;28;20075;-53
2022/12/14 00:03:14;;;;;;;24.88;12.10;;;;;;;0.03;64.45;100566.88;5068496;28;20032;-51
2022/12/14 00:05:40;;;;;;;23.13;12.27;;;;;;;0.01;64.20;100563.38;5063956;28;20501;-50
2022/12/14 00:08:06;;;;;;;21.45;11.95;;;;;;;0.02;64.83;100560.06;5068335;28;20017;-52
2022/12/14 00:10:33;;;;;;;19.67;11.10;;;;;;;0.02;64.59;100547.41;5069933;28;20481;-50
2022/12/14 00:12:59;;;;;;;19.75;10.52;;;;;;;-0.02;64.47;100537.09;5058203;28;20514;-48
2022/12/14 00:15:25;;;;;;;18.60;10.30;;;;;;;0.03;64.01;100536.53;5062408;28;20459;-50
2022/12/14 00:17:50;;;;;;;17.30;10.38;;;;;;;0.04;64.20;100534.09;5061634;28;20028;-51
2022/12/14 00:20:16;;;;;;;19.98;10.50;;;;;;;-0.01;64.04;100533.78;5064918;28;20381;-52
2022/12/14 00:22:41;;;;;;;19.05;10.35;;;;;;;-0.03;64.01;100537.88;5063005;28;20042;-53
2022/12/14 00:25:07;;;;;;;17.35;10.48;;;;;;;-0.05;63.86;100529.34;5061600;28;20025;-53
2022/12/14 00:27:32;;;;;;;17.05;10.20;;;;;;;-0.02;63.98;100528.63;5063763;28;20044;-52
2022/12/14 00:29:58;;;;;;;19.67;10.38;;;;;;;-0.02;63.89;100532.03;5059126;28;20033;-44
2022/12/14 00:32:23;;;;;;;19.35;10.18;;;;;;;-0.01;63.75;100532.91;5057805;28;20086;-49
2022/12/14 00:34:48;;;;;;;18.50;10.00;;;;;;;0.00;64.07;100537.22;5065011;28;20032;-50
2022/12/14 00:37:14;;;;;;;19.10;10.43;;;;;;;-0.01;63.84;100533.78;5060916;28;20085;-52
2022/12/14 00:39:39;;;;;;;19.48;10.68;;;;;;;0.00;63.58;100532.16;5063467;28;20112;-48
2022/12/14 00:42:04;;;;;;;17.67;9.63;;;;;;;-0.01;63.34;100528.72;5062348;28;20029;-46
2022/12/14 00:44:30;;;;;;;18.45;10.40;;;;;;;0.02;63.65;100523.00;5055574;28;20025;-58
2022/12/14 00:46:55;;;;;;;17.13;9.80;;;;;;;-0.04;63.31;100515.91;5060881;28;20123;-51
2022/12/14 00:49:20;;;;;;;18.73;10.07;;;;;;;-0.04;63.18;100507.47;5066243;28;20071;-50
2022/12/14 00:51:46;;;;;;;19.50;10.27;;;;;;;-0.09;63.04;100499.56;5064223;28;20107;-53
2022/12/14 00:54:11;;;;;;;18.30;10.30;;;;;;;-0.10;63.36;100490.25;5066043;28;20060;-52
2022/12/14 00:56:36;;;;;;;19.63;10.88;;;;;;;-0.14;62.97;100492.47;5066186;28;20052;-52
2022/12/14 00:59:02;;;;;;;19.55;10.30;;;;;;;-0.15;63.37;100485.66;5065939;28;20048;-52
2022/12/14 01:01:29;;;;;;;20.38;10.73;;;;;;;-0.13;63.54;100487.50;5066865;28;20037;-52
2022/12/14 01:04:15;;;;;;;19.42;10.52;;;;;;;-0.13;63.50;100479.03;5067667;28;20042;-49
2022/12/14 01:06:51;;;;;;;19.50;10.27;;;;;;;-0.12;63.47;100471.59;5066528;28;20072;-52
2022/12/14 01:09:18;;;;;;;19.33;10.38;;;;;;;-0.15;62.81;100471.38;5066280;28;20039;-51
2022/12/14 01:11:44;;;;;;;20.23;10.48;;;;;;;-0.12;63.01;100468.16;5062007;28;20027;-52
2022/12/14 01:14:11;;;;;;;19.35;10.43;;;;;;;-0.12;62.89;100463.09;5059551;28;20028;-52
2022/12/14 01:16:36;;;;;;;18.02;10.80;;;;;;;-0.13;62.77;100469.81;5059333;28;20033;-51
2022/12/14 01:19:02;;;;;;;18.35;9.95;;;;;;;-0.12;63.00;100464.00;5062545;28;20042;-52
2022/12/14 01:21:28;;;;;;;21.17;9.65;;;;;;;-0.16;62.81;100463.72;5061996;28;20039;-52
2022/12/14 01:23:57;;;;;;;18.33;9.90;;;;;;;-0.16;63.15;100459.53;5059735;28;20082;-47
2022/12/14 01:26:23;;;;;;;18.58;10.25;;;;;;;-0.15;63.04;100457.88;5060620;28;20028;-54
2022/12/14 01:28:52;;;;;;;20.77;11.10;;;;;;;-0.16;63.16;100457.00;5060437;28;20031;-51
2022/12/14 01:31:19;;;;;;;19.45;10.80;;;;;;;-0.18;63.34;100452.59;5059938;28;20031;-52
2022/12/14 01:33:45;;;;;;;18.05;10.77;;;;;;;-0.18;63.17;100450.97;5057568;28;20094;-47
2022/12/14 01:36:14;;;;;;;17.58;10.20;;;;;;;-0.17;63.05;100449.31;5059843;28;20028;-47
2022/12/14 01:38:39;;;;;;;17.90;9.82;;;;;;;-0.17;63.13;100461.97;5059860;28;20107;-52
2022/12/14 01:41:05;;;;;;;20.20;10.65;;;;;;;-0.25;63.10;100455.53;5058163;28;20182;-46
2022/12/14 01:43:54;;;;;;;20.23;10.70;;;;;;;-0.23;63.59;100457.38;5059536;28;20039;-50
2022/12/14 01:46:33;;;;;;;18.80;9.75;;;;;;;-0.21;63.77;100460.88;5052996;28;20025;-48
2022/12/14 01:49:10;;;;;;;18.55;9.52;;;;;;;-0.19;63.47;100466.91;5058256;28;20062;-47
2022/12/14 01:51:36;;;;;;;18.33;10.30;;;;;;;-0.24;63.72;100462.31;5065793;28;20047;-52
2022/12/14 01:54:05;;;;;;;17.75;10.30;;;;;;;-0.21;63.59;100457.47;5063350;28;20296;-50
2022/12/14 01:56:33;;;;;;;18.77;10.23;;;;;;;-0.23;63.50;100446.41;5060221;28;20604;-52
2022/12/14 01:59:04;;;;;;;18.08;10.43;;;;;;;-0.22;63.53;100454.06;5063035;28;20032;-50
2022/12/14 02:01:30;;;;;;;18.35;9.82;;;;;;;-0.22;63.68;100456.59;5063407;28;20034;-51
2022/12/14 02:03:55;;;;;;;19.60;11.02;;;;;;;-0.21;63.56;100453.28;5062560;28;20028;-45
2022/12/14 02:06:28;;;;;;;22.13;10.65;;;;;;;-0.18;63.64;100456.03;5059070;28;20048;-52
2022/12/14 02:08:55;;;;;;;20.67;10.57;;;;;;;-0.21;63.44;100449.91;5066255;28;20047;-52
2022/12/14 02:11:51;;;;;;;19.67;11.02;;;;;;;-0.17;63.86;100442.63;5061941;28;20041;-47
2022/12/14 02:14:16;;;;;;;20.60;11.18;;;;;;;-0.18;63.21;100445.03;5061536;28;20025;-52
2022/12/14 02:16:42;;;;;;;21.13;10.55;;;;;;;-0.19;63.48;100439.09;5059424;28;20151;-45
2022/12/14 02:19:07;;;;;;;20.23;10.27;;;;;;;-0.16;63.22;100435.91;5057730;28;20464;-52
2022/12/14 02:21:35;;;;;;;18.77;10.52;;;;;;;-0.16;63.28;100435.91;5063125;28;20032;-52
2022/12/14 02:24:18;;;;;;;19.95;10.52;;;;;;;-0.13;63.57;100431.03;5059429;28;20376;-52
2022/12/14 02:27:02;;;;;;;20.27;9.73;;;;;;;-0.16;63.68;100428.31;5056203;28;20381;-51
2022/12/14 02:29:46;;;;;;;18.63;10.00;;;;;;;-0.14;63.31;100427.63;5058925;28;20035;-52
2022/12/14 02:32:21;;;;;;;21.20;10.70;;;;;;;-0.22;63.01;100426.28;5059689;28;20534;-49
2022/12/14 02:34:52;;;;;;;19.05;9.80;;;;;;;-0.18;63.42;100423.19;5060365;28;20665;-48
2022/12/14 02:37:42;;;;;;;18.00;10.25;;;;;;;-0.12;63.65;100421.03;5057960;28;20028;-52
2022/12/14 02:40:21;;;;;;;17.75;9.90;;;;;;;-0.15;63.12;100420.84;5059386;28;20028;-51
2022/12/14 02:42:57;;;;;;;19.20;10.20;;;;;;;-0.15;63.16;100415.78;5059187;28;20041;-52
2022/12/14 02:45:34;;;;;;;21.42;10.20;;;;;;;-0.15;63.17;100414.91;5060917;28;20298;-51
2022/12/14 02:48:05;;;;;;;18.27;10.10;;;;;;;-0.19;63.14;100420.53;5050588;28;20028;-45
2022/12/14 02:51:10;;;;;;;22.50;9.98;;;;;;;-0.15;63.59;100412.38;5060523;28;20498;-45
2022/12/14 02:53:45;;;;;;;20.25;10.00;;;;;;;-0.17;63.43;100421.53;5057329;28;20036;-51
2022/12/14 02:56:16;;;;;;;18.60;9.88;;;;;;;-0.17;63.63;100426.59;5070546;28;20055;-51
2022/12/14 02:58:49;;;;;;;18.45;10.45;;;;;;;-0.23;63.23;100427.06;5063952;28;20036;-50
2022/12/14 03:01:18;;;;;;;18.52;10.15;;;;;;;-0.22;63.51;100420.34;5061026;28;20494;-52
2022/12/14 03:03:43;;;;;;;20.15;10.18;;;;;;;-0.20;63.29;100421.31;5064494;28;20032;-47
2022/12/14 03:06:24;;;;;;;18.73;9.80;;;;;;;-0.17;63.71;100422.41;5062312;28;20045;-52
2022/12/14 03:08:52;;;;;;;17.13;9.90;;;;;;;-0.22;63.30;100418.69;5060890;28;20048;-51
2022/12/14 03:11:26;;;;;;;20.40;9.85;;;;;;;-0.20;63.34;100407.03;5060701;28;20035;-49
2022/12/14 03:14:01;;;;;;;15.93;9.43;;;;;;;-0.14;63.25;100409.06;5063543;28;20484;-50
2022/12/14 03:16:35;;;;;;;20.70;9.65;;;;;;;-0.14;63.03;100414.13;5064523;28;20028;-48
2022/12/14 03:19:17;;;;;;;16.73;9.60;;;;;;;-0.14;63.31;100415.00;5058316;28;20036;-51
2022/12/14 03:21:48;;;;;;;20.35;10.00;;;;;;;-0.17;62.85;100417.34;5062905;28;20028;-52
2022/12/14 03:24:20;;;;;;;16.90;9.15;;;;;;;-0.17;63.29;100407.25;5063562;28;20426;-52
2022/12/14 03:26:52;;;;;;;17.35;9.55;;;;;;;-0.18;63.80;100410.56;5061021;28;20115;-48
2022/12/14 03:29:23;;;;;;;15.07;9.13;;;;;;;-0.19;63.11;100402.84;5063724;28;20037;-51
2022/12/14 03:31:55;;;;;;;16.42;8.82;;;;;;;-0.18;62.84;100405.50;5060366;28;20413;-51
2022/12/14 03:34:43;;;;;;;16.30;9.05;;;;;;;-0.20;63.00;100394.41;5063145;28;20068;-46
2022/12/14 03:37:14;;;;;;;18.70;9.10;;;;;;;-0.16;62.82;100382.84;5063649;28;20040;-46
2022/12/14 03:39:42;;;;;;;17.05;9.20;;;;;;;-0.19;62.74;100382.63;5065540;28;20111;-52
2022/12/14 03:42:23;;;;;;;16.23;9.02;;;;;;;-0.23;62.48;100386.63;5060961;28;20437;-53
2022/12/14 03:45:20;;;;;;;18.40;8.80;;;;;;;-0.23;62.65;100384.13;5061545;28;20052;-52
2022/12/14 03:47:48;;;;;;;17.08;8.90;;;;;;;-0.22;62.15;100373.22;5051786;28;20094;-52
2022/12/14 03:50:23;;;;;;;17.13;9.30;;;;;;;-0.18;62.85;100376.78;5056679;28;20481;-55
2022/12/14 03:53:06;;;;;;;17.55;9.45;;;;;;;-0.19;63.16;100368.34;5066718;28;20035;-51
2022/12/14 03:56:03;;;;;;;15.60;8.52;;;;;;;-0.14;63.23;100361.94;5067008;28;20051;-53
2022/12/14 03:58:38;;;;;;;18.13;9.40;;;;;;;-0.13;62.92;100363.66;5066121;28;20051;-52
2022/12/14 04:01:13;;;;;;;19.33;9.25;;;;;;;-0.12;62.32;100362.91;5061156;28;20349;-50
2022/12/14 04:04:01;;;;;;;18.10;9.27;;;;;;;-0.11;62.96;100363.78;5062954;28;20049;-49
2022/12/14 04:06:53;;;;;;;19.95;9.75;;;;;;;-0.10;63.09;100363.00;5061014;28;20468;-50
2022/12/14 04:09:26;;;;;;;15.20;9.00;;;;;;;-0.15;62.68;100367.78;5062882;28;20055;-52
2022/12/14 04:20:34;;;;;;;17.65;9.48;;;;;;;-0.31;62.92;100342.31;5053640;28;20043;-45
2022/12/14 04:23:10;;;;;;;15.80;9.23;;;;;;;-0.28;63.62;100332.41;5062281;28;20036;-52
2022/12/14 04:26:03;;;;;;;15.23;8.80;;;;;;;-0.30;63.07;100328.94;5063889;28;20046;-52
2022/12/14 04:31:21;;;;;;;16.40;8.75;;;;;;;-0.28;63.15;100323.19;5061875;28;20086;-53
2022/12/14 04:33:53;;;;;;;16.65;9.45;;;;;;;-0.23;63.10;100320.06;5060438;28;20050;-50
2022/12/14 04:36:31;;;;;;;18.10;8.73;;;;;;;-0.22;63.11;100314.25;5062693;28;21016;-46
2022/12/14 04:39:03;;;;;;;18.02;9.43;;;;;;;-0.21;63.04;100308.41;5062146;28;20021;-53
2022/12/14 04:41:35;;;;;;;17.67;9.02;;;;;;;-0.20;62.92;100310.13;5065531;28;20090;-50
2022/12/14 04:44:07;;;;;;;15.52;9.00;;;;;;;-0.23;62.86;100308.31;5064142;28;20032;-52
2022/12/14 04:46:36;;;;;;;14.65;8.93;;;;;;;-0.25;63.08;100317.44;5060110;28;20055;-49
2022/12/14 04:49:06;;;;;;;15.27;8.52;;;;;;;-0.22;63.47;100307.53;5061457;28;20028;-52
2022/12/14 04:51:45;;;;;;;17.48;9.00;;;;;;;-0.21;63.01;100311.78;5059328;28;22049;-52
2022/12/14 04:54:22;;;;;;;14.80;8.43;;;;;;;-0.18;63.60;100308.56;5060349;28;20028;-53
2022/12/14 04:56:55;;;;;;;16.60;8.68;;;;;;;-0.17;63.09;100305.28;5062443;28;20136;-44
2022/12/14 04:59:21;;;;;;;22.02;9.40;;;;;;;-0.19;63.36;100306.81;5060928;28;20389;-49
2022/12/14 05:02:11;;;;;;;14.32;8.50;;;;;;;-0.17;63.48;100300.25;5061915;28;20028;-52
2022/12/14 05:05:06;;;;;;;16.38;8.40;;;;;;;-0.14;63.42;100298.75;5061639;28;20027;-52
2022/12/14 05:07:37;;;;;;;18.15;9.05;;;;;;;-0.18;63.38;100295.94;5062530;28;20024;-49
2022/12/14 05:10:13;;;;;;;14.52;8.65;;;;;;;-0.21;63.25;100296.63;5061989;28;20032;-52
2022/12/14 05:12:53;;;;;;;16.83;8.70;;;;;;;-0.18;63.56;100290.88;5062077;28;20082;-52
2022/12/14 05:15:26;;;;;;;15.82;8.20;;;;;;;-0.21;63.19;100294.09;5058743;28;20028;-46
2022/12/14 05:17:53;;;;;;;17.90;8.82;;;;;;;-0.22;63.48;100286.44;5062574;28;20074;-52
2022/12/14 05:20:21;;;;;;;16.40;8.85;;;;;;;-0.19;63.34;100284.97;5062296;28;20111;-48
2022/12/14 05:22:47;;;;;;;16.67;8.50;;;;;;;-0.16;63.25;100292.75;5053557;28;20032;-52
2022/12/14 05:25:12;;;;;;;16.13;8.98;;;;;;;-0.17;63.18;100282.56;5059002;28;20094;-48
2022/12/14 05:27:38;;;;;;;16.35;8.65;;;;;;;-0.16;63.53;100286.81;5059959;28;20055;-49
2022/12/14 05:30:05;;;;;;;18.67;8.65;;;;;;;-0.16;63.23;100285.16;5061588;28;20036;-52
2022/12/14 05:32:31;;;;;;;15.35;8.50;;;;;;;-0.14;62.78;100282.72;5059329;28;20508;-44
2022/12/14 05:34:57;;;;;;;16.60;8.88;;;;;;;-0.12;63.00;100278.63;5058937;28;20498;-52
2022/12/14 05:37:22;;;;;;;18.50;8.93;;;;;;;-0.10;63.11;100277.94;5060017;28;20109;-51
2022/12/14 05:39:47;;;;;;;15.50;8.65;;;;;;;-0.11;63.16;100276.22;5060052;28;20035;-52
2022/12/14 05:42:13;;;;;;;14.80;8.52;;;;;;;-0.10;63.20;100275.44;5061452;28;20038;-51
2022/12/14 05:44:38;;;;;;;15.20;8.18;;;;;;;-0.14;62.90;100270.97;5057237;28;20029;-50
2022/12/14 05:47:04;;;;;;;17.63;8.60;;;;;;;-0.13;62.98;100271.81;5056585;28;20035;-48
2022/12/14 05:49:29;;;;;;;17.17;8.02;;;;;;;-0.14;62.71;100275.13;5057885;28;20102;-44
2022/12/14 05:51:55;;;;;;;14.10;8.35;;;;;;;-0.11;63.08;100272.81;5061656;28;20040;-49
2022/12/14 05:54:20;;;;;;;14.30;8.02;;;;;;;-0.12;62.92;100274.47;5062108;28;20021;-50
2022/12/14 05:56:45;;;;;;;16.85;8.45;;;;;;;-0.13;63.15;100275.22;5058656;28;20088;-53
2022/12/14 05:59:14;;;;;;;18.52;8.43;;;;;;;-0.12;63.32;100273.56;5061886;28;20032;-52
2022/12/14 06:01:43;;;;;;;17.58;9.30;;;;;;;-0.11;63.58;100271.16;5062594;28;20496;-52
2022/12/14 06:04:13;;;;;;;16.23;8.68;;;;;;;-0.09;63.19;100276.31;5057479;28;20067;-50
2022/12/14 06:06:38;;;;;;;13.70;8.07;;;;;;;-0.06;63.18;100277.38;5061636;28;20036;-52
2022/12/14 06:09:06;;;;;;;14.30;8.75;;;;;;;-0.04;63.39;100270.75;5066116;28;20032;-51
2022/12/14 06:11:32;;;;;;;15.38;8.65;;;;;;;-0.06;62.83;100267.25;5062882;28;20032;-55
2022/12/14 06:13:57;;;;;;;18.15;9.32;;;;;;;-0.07;62.88;100268.00;5062294;28;20028;-45
2022/12/14 06:16:25;;;;;;;16.83;8.60;;;;;;;-0.07;63.12;100267.16;5064717;28;20035;-45
2022/12/14 06:18:55;;;;;;;17.10;9.00;;;;;;;-0.06;63.08;100262.22;5058297;28;20063;-52
2022/12/14 06:21:24;;;;;;;15.95;7.97;;;;;;;-0.08;63.16;100261.22;5061671;28;20469;-49
2022/12/14 06:23:49;;;;;;;17.42;8.98;;;;;;;-0.04;62.71;100263.16;5054277;28;20473;-48
2022/12/14 06:26:16;;;;;;;14.07;8.23;;;;;;;-0.02;62.86;100263.25;5057036;28;20041;-42
2022/12/14 06:28:41;;;;;;;16.20;8.52;;;;;;;-0.06;63.30;100264.72;5062043;28;20043;-52
2022/12/14 06:31:12;;;;;;;15.35;8.45;;;;;;;-0.07;62.87;100257.03;5056639;28;20044;-51
2022/12/14 06:33:37;;;;;;;17.33;8.95;;;;;;;-0.03;63.00;100258.97;5063140;28;20059;-50
2022/12/14 06:36:03;;;;;;;15.93;8.52;;;;;;;-0.03;63.01;100262.38;5063471;28;20075;-47
2022/12/14 06:38:29;;;;;;;17.75;9.40;;;;;;;-0.02;63.21;100265.78;5058633;28;20112;-52
2022/12/14 06:40:54;;;;;;;16.98;8.75;;;;;;;-0.01;63.01;100273.44;5059965;28;20036;-51
2022/12/14 06:43:19;;;;;;;18.90;8.63;;;;;;;-0.03;62.74;100274.16;5059054;28;20434;-46
2022/12/14 06:45:45;;;;;;;18.02;8.60;;;;;;;-0.07;63.05;100274.72;5060910;28;20086;-52
2022/12/14 06:48:10;;;;;;;14.73;8.27;;;;;;;-0.10;63.29;100266.97;5057370;28;20075;-51
2022/12/14 06:50:36;;;;;;;17.95;8.93;;;;;;;-0.04;63.22;100268.22;5062800;28;20106;-45
2022/12/14 06:53:01;;;;;;;15.82;7.78;;;;;;;-0.02;63.41;100271.69;5060430;28;20059;-51
2022/12/14 06:55:28;;;;;;;14.98;8.55;;;;;;;0.01;63.81;100270.16;5053026;28;20416;-50
2022/12/14 06:57:54;;;;;;;18.02;8.35;;;;;;;0.01;63.25;100273.56;5058038;28;20094;-43
2022/12/14 07:00:22;;;;;;;14.20;8.27;;;;;;;0.05;63.58;100275.47;5058914;28;20149;-49
2022/12/14 07:02:47;;;;;;;19.52;8.73;;;;;;;0.04;63.86;100273.72;5058323;28;20056;-48
2022/12/14 07:05:13;;;;;;;13.73;8.32;;;;;;;0.04;63.78;100280.44;5058770;28;20465;-49
2022/12/14 07:07:40;;;;;;;13.48;8.15;;;;;;;0.01;63.84;100285.31;5058075;28;20036;-50
2022/12/14 07:10:07;;;;;;;15.25;8.48;;;;;;;0.01;63.86;100280.28;5060173;28;20032;-51
2022/12/14 07:12:33;;;;;;;18.02;8.35;;;;;;;-0.02;64.11;100271.69;5060425;28;20374;-51
2022/12/14 07:14:58;;;;;;;15.63;8.45;;;;;;;-0.01;64.04;100283.56;5056877;28;20044;-51
2022/12/14 07:17:23;;;;;;;15.50;8.80;;;;;;;0.01;64.01;100280.28;5058095;28;20043;-52
2022/12/14 07:19:49;;;;;;;17.13;8.55;;;;;;;0.01;64.00;100278.63;5059658;28;20510;-51
2022/12/14 07:22:14;;;;;;;14.13;8.20;;;;;;;-0.02;64.06;100276.75;5061320;28;20028;-52
2022/12/14 07:24:40;;;;;;;14.38;8.70;;;;;;;-0.05;63.97;100276.59;5056044;28;20135;-46
2022/12/14 07:27:06;;;;;;;17.23;8.88;;;;;;;-0.08;63.86;100283.97;5057235;28;20052;-42
2022/12/14 07:29:31;;;;;;;14.63;8.77;;;;;;;-0.09;63.99;100286.41;5057273;28;20047;-46
2022/12/14 07:31:57;;;;;;;15.80;8.88;;;;;;;-0.12;64.12;100289.63;5061226;28;20050;-52
2022/12/14 07:34:22;;;;;;;17.58;9.50;;;;;;;-0.16;63.84;100282.63;5060247;28;20025;-50
2022/12/14 07:36:49;;;;;;;21.70;11.25;;;;;;;-0.18;63.89;100279.16;5060790;28;20067;-51
2022/12/14 07:39:16;;;;;;;23.17;10.90;;;;;;;-0.24;64.09;100281.31;5060790;28;20024;-48
2022/12/14 07:41:42;;;;;;;19.67;10.48;;;;;;;-0.24;64.30;100278.78;5061383;28;20025;-51
2022/12/14 07:44:08;;;;;;;19.90;10.25;;;;;;;-0.27;64.34;100283.63;5063713;28;20070;-51
2022/12/14 07:46:34;;;;;;;17.73;9.63;;;;;;;-0.28;63.92;100287.81;5063378;28;20055;-50
2022/12/14 07:49:00;;;;;;;17.13;9.48;;;;;;;-0.24;63.89;100291.41;5061063;28;20099;-51
2022/12/14 07:51:32;;;;;;;17.27;9.63;;;;;;;-0.25;64.31;100294.69;5064018;28;20113;-47
2022/12/14 07:53:58;;;;;;;19.98;9.40;;;;;;;-0.28;64.06;100297.03;5069518;28;20385;-51
2022/12/14 07:56:26;;;;;;;16.30;9.32;;;;;;;-0.28;64.09;100297.91;5061394;28;20048;-51
2022/12/14 07:58:53;;;;;;;15.70;8.95;;;;;;;-0.30;64.44;100294.44;5062219;28;20190;-50
2022/12/14 08:01:30;;;;;;;18.42;9.77;;;;;;;-0.23;64.25;100299.88;5064002;28;20476;-48
2022/12/14 08:04:09;;;;;;;16.98;9.80;;;;;;;-0.25;64.54;100299.75;5064455;28;20465;-52
2022/12/14 08:06:38;;;;;;;17.35;10.30;;;;;;;-0.32;64.10;100308.59;5064968;28;20028;-46
2022/12/14 08:09:05;;;;;;;17.70;9.70;;;;;;;-0.38;64.29;100308.22;5065144;28;20031;-53
2022/12/14 08:11:31;;;;;;;17.83;9.98;;;;;;;-0.39;64.43;100309.00;5063442;28;20708;-51
2022/12/14 08:13:58;;;;;;;15.82;9.27;;;;;;;-0.42;64.51;100306.31;5061832;28;20071;-50
2022/12/14 08:16:24;;;;;;;16.90;9.88;;;;;;;-0.42;64.38;100297.84;5060886;28;20039;-45
2022/12/14 08:18:53;;;;;;;16.65;9.98;;;;;;;-0.45;64.11;100318.72;5063791;28;20021;-47
2022/12/14 08:21:20;;;;;;;15.82;9.18;;;;;;;-0.46;64.42;100319.50;5060697;28;20048;-51
2022/12/14 08:23:46;;;;;;;17.70;9.82;;;;;;;-0.45;64.11;100322.91;5063811;28;20024;-46
2022/12/14 08:26:12;;;;;;;16.88;9.70;;;;;;;-0.49;63.71;100318.41;5059737;28;20482;-50
2022/12/14 08:28:37;;;;;;;20.27;9.85;;;;;;;-0.48;63.97;100327.78;5060345;28;20082;-51
2022/12/14 08:31:05;;;;;;;16.65;9.43;;;;;;;-0.46;64.02;100323.69;5059814;28;20388;-51
2022/12/14 08:33:32;;;;;;;16.02;9.68;;;;;;;-0.48;64.02;100322.72;5064712;28;20361;-47
2022/12/14 08:36:11;;;;;;;17.80;9.52;;;;;;;-0.45;64.11;100320.38;5064741;28;20085;-50
2022/12/14 08:38:37;;;;;;;18.10;9.32;;;;;;;-0.47;63.78;100325.34;5066603;28;20029;-47
2022/12/14 08:41:13;;;;;;;14.52;9.35;;;;;;;-0.38;63.85;100319.97;5067136;28;20150;-49
2022/12/14 08:43:39;;;;;;;15.98;9.45;;;;;;;-0.44;63.64;100315.41;5067777;28;20044;-45
2022/12/14 08:46:06;;;;;;;17.67;9.48;;;;;;;-0.45;63.99;100312.78;5069457;28;20373;-47
2022/12/14 08:48:32;;;;;;;15.27;8.98;;;;;;;-0.49;64.09;100311.72;5068597;28;20013;-54
2022/12/14 08:51:02;;;;;;;15.93;9.07;;;;;;;-0.49;64.53;100311.72;5065586;28;20031;-48
2022/12/14 08:53:28;;;;;;;17.00;9.45;;;;;;;-0.47;64.50;100321.94;5065294;28;20373;-51
2022/12/14 08:55:53;;;;;;;15.85;9.43;;;;;;;-0.49;64.39;100323.47;5067074;28;20024;-50
2022/12/14 08:58:18;;;;;;;15.55;9.25;;;;;;;-0.43;63.83;100321.34;5057618;28;20056;-51
2022/12/14 09:00:44;;;;;;;14.45;8.98;;;;;;;-0.29;63.57;100323.97;5065358;28;20037;-52
2022/12/14 09:03:10;;;;;;;16.25;9.20;;;;;;;-0.15;63.29;100323.94;5064001;28;20031;-52
2022/12/14 09:05:36;;;;;;;14.15;8.82;;;;;;;-0.09;62.53;100325.19;5066460;28;20033;-45
2022/12/14 09:08:01;;;;;;;16.70;9.18;;;;;;;0.01;62.34;100315.66;5060539;28;20032;-49
2022/12/14 09:10:26;;;;;;;15.38;8.32;;;;;;;0.00;61.84;100319.84;5062453;28;20098;-48
2022/12/14 09:12:52;;;;;;;15.20;7.88;;;;;;;0.05;61.90;100328.56;5063191;28;20032;-52
2022/12/14 09:15:17;;;;;;;13.55;7.65;;;;;;;0.02;61.52;100332.56;5065134;28;20606;-50
2022/12/14 09:17:43;;;;;;;13.73;7.68;;;;;;;0.05;61.89;100328.56;5061969;28;20033;-47
2022/12/14 09:20:09;;;;;;;14.00;7.75;;;;;;;0.11;61.64;100335.63;5064020;28;20052;-52
2022/12/14 09:22:34;;;;;;;12.98;7.65;;;;;;;0.09;61.51;100337.22;5066379;28;20021;-52
2022/12/14 09:25:00;;;;;;;16.55;7.95;;;;;;;0.08;61.41;100348.09;5064740;28;20020;-51
2022/12/14 09:27:25;;;;;;;14.75;8.20;;;;;;;0.07;61.97;100343.84;5063733;28;20024;-52
2022/12/14 09:29:50;;;;;;;15.57;8.32;;;;;;;0.13;61.57;100345.09;5056123;28;20124;-52
2022/12/14 09:32:16;;;;;;;14.25;8.38;;;;;;;0.17;61.73;100338.53;5066410;28;20033;-50
2022/12/14 09:34:41;;;;;;;15.55;8.57;;;;;;;0.20;61.74;100342.13;5062167;28;20477;-52
2022/12/14 09:37:06;;;;;;;17.38;8.45;;;;;;;0.32;61.57;100334.44;5066172;28;20097;-52
2022/12/14 09:39:33;;;;;;;15.68;7.75;;;;;;;0.38;60.85;100338.97;5066817;28;20039;-52
2022/12/14 09:42:17;;;;;;;14.90;8.18;;;;;;;0.39;60.12;100335.66;5064863;28;20044;-51
2022/12/14 09:45:16;;;;;;;18.10;7.90;;;;;;;0.53;61.38;100334.81;5061373;28;20024;-50
2022/12/14 09:48:19;;;;;;;14.25;8.15;;;;;;;0.57;61.14;100338.41;5062330;28;21327;-52
2022/12/14 09:50:49;;;;;;;13.77;8.00;;;;;;;0.52;60.73;100336.47;5067233;28;20028;-51
2022/12/14 09:53:17;;;;;;;16.08;8.43;;;;;;;0.60;60.58;100336.06;5064048;28;20028;-51
2022/12/14 09:55:46;;;;;;;13.90;8.20;;;;;;;0.60;60.38;100341.13;5065271;28;20470;-51
2022/12/14 09:58:21;;;;;;;12.45;7.88;;;;;;;0.64;60.26;100338.84;5065669;28;20109;-49
2022/12/14 10:00:54;;;;;;;14.32;7.90;;;;;;;0.66;59.93;100331.34;5053358;28;20528;-51
2022/12/14 10:03:38;;;;;;;16.17;8.23;;;;;;;0.78;60.43;100330.41;5064384;28;20024;-48
2022/12/14 10:06:21;;;;;;;14.88;8.13;;;;;;;0.89;60.15;100328.50;5063305;28;20043;-51
2022/12/14 10:09:26;;;;;;;11.95;7.18;;;;;;;1.02;60.35;100320.81;5062002;28;20048;-52
2022/12/14 10:12:09;;;;;;;14.75;8.25;;;;;;;1.15;59.30;100331.66;5057671;28;20039;-52
2022/12/14 10:14:56;;;;;;;18.52;8.60;;;;;;;1.22;59.53;100327.03;5065074;28;20040;-52
2022/12/14 10:17:40;;;;;;;15.50;8.40;;;;;;;1.27;59.04;100329.81;5060701;28;20020;-53
2022/12/14 10:20:22;;;;;;;14.93;7.93;;;;;;;1.34;59.30;100322.66;5060491;28;20469;-51
2022/12/14 10:22:51;;;;;;;14.05;7.75;;;;;;;1.34;58.33;100321.81;5066900;28;20031;-51
2022/12/14 10:25:28;;;;;;;15.35;8.25;;;;;;;1.42;58.31;100332.34;5067648;28;20020;-54
2022/12/14 10:28:06;;;;;;;13.52;7.97;;;;;;;1.37;58.37;100329.56;5064559;28;20031;-50
2022/12/14 10:30:32;;;;;;;14.27;7.97;;;;;;;1.49;57.42;100334.44;5052785;28;20051;-54
2022/12/14 10:33:21;;;;;;;14.77;8.00;;;;;;;1.60;57.85;100336.78;5059486;28;20036;-48
2022/12/14 10:35:52;;;;;;;13.65;7.57;;;;;;;1.92;57.36;100336.78;5061422;28;20441;-57
2022/12/14 10:38:46;;;;;;;13.70;7.75;;;;;;;2.29;57.95;100332.88;5060249;28;20103;-49
2022/12/14 10:41:23;;;;;;;15.70;8.50;;;;;;;2.56;56.00;100332.56;5059351;28;20393;-52
2022/12/14 10:43:57;;;;;;;14.38;7.57;;;;;;;3.09;54.94;100325.09;5065129;28;20777;-49
2022/12/14 10:46:50;;;;;;;15.10;7.70;;;;;;;3.54;54.69;100327.25;5060853;28;20032;-47
2022/12/14 10:49:32;;;;;;;15.20;7.32;;;;;;;3.90;53.32;100323.88;5060749;28;20029;-52
2022/12/14 10:52:16;;;;;;;16.38;8.40;;;;;;;4.00;52.90;100325.16;5061377;28;20370;-49
2022/12/14 10:54:51;;;;;;;15.77;8.15;;;;;;;3.79;51.88;100329.28;5060480;28;20025;-50
2022/12/14 10:57:18;;;;;;;15.02;7.45;;;;;;;3.62;51.56;100321.72;5066478;28;20074;-50
2022/12/14 10:59:44;;;;;;;15.82;7.80;;;;;;;3.57;51.18;100324.84;5065141;28;20107;-50
2022/12/14 11:02:15;;;;;;;13.20;7.88;;;;;;;3.49;51.42;100330.44;5057444;28;20107;-50
2022/12/14 11:04:53;;;;;;;11.50;7.57;;;;;;;3.33;51.36;100330.50;5058989;28;20095;-53
2022/12/14 11:07:24;;;;;;;12.40;7.95;;;;;;;3.09;51.29;100330.16;5066459;28;20024;-50
2022/12/14 11:09:50;;;;;;;11.30;7.32;;;;;;;3.08;52.01;100325.03;5063499;28;20041;-51
2022/12/14 11:12:29;;;;;;;12.23;7.68;;;;;;;3.15;53.05;100317.75;5055589;28;20036;-47
2022/12/14 11:14:57;;;;;;;12.80;7.97;;;;;;;3.08;52.35;100330.97;5061446;28;20465;-49
2022/12/14 11:17:28;;;;;;;12.23;7.75;;;;;;;3.09;53.33;100326.75;5061619;28;20024;-49
2022/12/14 11:20:09;;;;;;;12.90;7.60;;;;;;;3.11;53.06;100328.59;5069623;28;20025;-45
2022/12/14 11:23:04;;;;;;;13.57;7.28;;;;;;;3.14;53.56;100326.19;5063841;28;20024;-47
2022/12/14 11:25:38;;;;;;;11.85;7.10;;;;;;;3.14;53.13;100326.19;5061881;28;20037;-46
2022/12/14 11:28:15;;;;;;;15.02;8.00;;;;;;;3.19;53.65;100324.75;5064391;28;20667;-46
2022/12/14 11:30:52;;;;;;;12.52;7.45;;;;;;;3.11;52.75;100333.69;5060552;28;20112;-53
2022/12/14 11:33:17;;;;;;;12.45;7.45;;;;;;;3.05;52.53;100324.88;5052418;28;20028;-53
2022/12/14 11:35:49;;;;;;;14.80;7.65;;;;;;;3.05;51.95;100329.97;5060438;28;20033;-49
2022/12/14 11:38:15;;;;;;;13.95;7.40;;;;;;;2.90;52.58;100327.50;5062943;28;20039;-45
2022/12/14 11:40:41;;;;;;;12.43;7.45;;;;;;;2.95;52.25;100328.63;5064570;28;20056;-44
2022/12/14 11:43:21;;;;;;;14.27;7.75;;;;;;;2.96;52.61;100322.75;5061456;28;21661;-48
2022/12/14 11:45:50;;;;;;;13.48;7.80;;;;;;;2.94;52.83;100327.75;5067770;28;20052;-43